createdAt,value
2022-11-25T00:00:57.874Z,990.42
2022-11-25T00:01:57.909Z,990.39
2022-11-25T00:02:57.932Z,990.41
2022-11-25T00:03:57.840Z,990.41
2022-11-25T00:04:57.817Z,990.48
2022-11-25T00:05:57.787Z,990.48
2022-11-25T00:06:57.797Z,990.45
2022-11-25T00:07:57.801Z,990.51
2022-11-25T00:08:58.086Z,990.49
2022-11-25T00:09:57.745Z,990.49
2022-11-25T00:11:02.476Z,990.48
2022-11-25T00:11:57.716Z,990.47
2022-11-25T00:12:57.738Z,990.47
2022-11-25T00:13:57.696Z,990.42
2022-11-25T00:14:57.737Z,990.44
2022-11-25T00:15:57.677Z,990.44
2022-11-25T00:16:57.731Z,990.43
2022-11-25T00:17:57.689Z,990.36
2022-11-25T00:18:57.668Z,990.40
2022-11-25T00:19:57.639Z,990.31
2022-11-25T00:21:00.038Z,990.31
2022-11-25T00:21:57.690Z,990.28
2022-11-25T00:22:57.621Z,990.31
2022-11-25T00:23:57.609Z,990.30
2022-11-25T00:24:57.627Z,990.34
2022-11-25T00:25:57.587Z,990.34
2022-11-25T00:26:57.611Z,990.30
2022-11-25T00:27:57.607Z,990.32
2022-11-25T00:28:57.554Z,990.29
2022-11-25T00:29:57.525Z,990.24
2022-11-25T00:30:57.576Z,990.26
2022-11-25T00:31:57.599Z,990.26
2022-11-25T00:32:58.019Z,990.28
2022-11-25T00:33:57.490Z,990.29
2022-11-25T00:34:57.516Z,990.28
2022-11-25T00:35:58.428Z,990.31
2022-11-25T00:37:54.658Z,990.31
2022-11-25T00:38:54.222Z,990.35
2022-11-25T00:39:54.180Z,990.35
2022-11-25T00:40:54.189Z,990.39
2022-11-25T00:41:54.151Z,990.37
2022-11-25T00:42:54.150Z,990.41
2022-11-25T00:43:54.142Z,990.35
2022-11-25T00:44:54.162Z,990.34
2022-11-25T00:45:54.173Z,990.33
2022-11-25T00:46:54.133Z,990.31
2022-11-25T00:47:54.101Z,990.32
2022-11-25T00:48:54.101Z,990.31
2022-11-25T00:49:54.127Z,990.31
2022-11-25T00:50:54.093Z,990.31
2022-11-25T00:51:54.049Z,990.30
2022-11-25T00:52:54.057Z,990.30
2022-11-25T00:53:58.712Z,990.26
2022-11-25T00:54:55.071Z,990.22
2022-11-25T00:55:54.011Z,990.26
2022-11-25T00:56:54.024Z,990.27
2022-11-25T00:57:53.990Z,990.29
2022-11-25T00:58:54.030Z,990.27
2022-11-25T00:59:53.992Z,990.26
2022-11-25T01:00:54.090Z,990.25
2022-11-25T01:01:54.031Z,990.26
2022-11-25T01:02:53.962Z,990.27
2022-11-25T01:03:53.933Z,990.28
2022-11-25T01:04:53.964Z,990.32
2022-11-25T01:05:53.932Z,990.34
2022-11-25T01:06:53.932Z,990.37
2022-11-25T01:07:53.951Z,990.37
2022-11-25T01:08:53.898Z,990.36
2022-11-25T01:09:53.872Z,990.38
2022-11-25T01:10:53.891Z,990.30
2022-11-25T01:11:53.862Z,990.38
2022-11-25T01:12:53.862Z,990.35
2022-11-25T01:13:57.945Z,990.39
2022-11-25T01:14:54.842Z,990.43
2022-11-25T01:15:53.852Z,990.40
2022-11-25T01:16:53.949Z,990.43
2022-11-25T01:17:53.790Z,990.43
2022-11-25T01:18:53.792Z,990.41
2022-11-25T01:19:53.783Z,990.44
2022-11-25T01:20:53.771Z,990.44
2022-11-25T01:21:53.750Z,990.45
2022-11-25T01:22:53.762Z,990.45
2022-11-25T01:23:53.751Z,990.38
2022-11-25T01:24:53.763Z,990.40
2022-11-25T01:25:53.745Z,990.43
2022-11-25T01:26:53.713Z,990.43
2022-11-25T01:27:53.712Z,990.45
2022-11-25T01:28:53.702Z,990.44
2022-11-25T01:29:53.694Z,990.47
2022-11-25T01:30:53.681Z,990.44
2022-11-25T01:31:53.735Z,990.40
2022-11-25T01:32:53.662Z,990.44
2022-11-25T01:33:53.621Z,990.40
2022-11-25T01:34:53.632Z,990.44
2022-11-25T01:35:53.781Z,990.46
2022-11-25T01:36:53.657Z,990.46
2022-11-25T01:37:53.590Z,990.48
2022-11-25T01:38:53.591Z,990.47
2022-11-25T01:39:53.593Z,990.44
2022-11-25T01:40:53.573Z,990.41
2022-11-25T01:41:53.553Z,990.40
2022-11-25T01:42:53.562Z,990.43
2022-11-25T01:43:53.523Z,990.44
2022-11-25T01:44:53.533Z,990.40
2022-11-25T01:45:53.609Z,990.39
2022-11-25T01:46:53.514Z,990.45
2022-11-25T01:47:53.485Z,990.46
2022-11-25T01:48:53.520Z,990.44
2022-11-25T01:49:53.482Z,990.44
2022-11-25T01:50:53.481Z,990.45
2022-11-25T01:51:53.441Z,990.44
2022-11-25T01:52:53.452Z,990.48
2022-11-25T01:53:53.420Z,990.48
2022-11-25T01:54:53.440Z,990.46
2022-11-25T01:55:53.431Z,990.50
2022-11-25T01:56:53.413Z,990.48
2022-11-25T01:57:53.394Z,990.47
2022-11-25T01:58:53.402Z,990.44
2022-11-25T01:59:53.374Z,990.39
2022-11-25T02:00:53.591Z,990.43
2022-11-25T02:01:53.365Z,990.39
2022-11-25T02:02:53.368Z,990.46
2022-11-25T02:03:53.330Z,990.41
2022-11-25T02:04:53.332Z,990.40
2022-11-25T02:05:53.310Z,990.44
2022-11-25T02:06:53.332Z,990.39
2022-11-25T02:07:53.350Z,990.37
2022-11-25T02:08:53.331Z,990.39
2022-11-25T02:09:53.262Z,990.45
2022-11-25T02:10:53.282Z,990.45
2022-11-25T02:11:53.244Z,990.50
2022-11-25T02:12:53.251Z,990.53
2022-11-25T02:13:53.223Z,990.51
2022-11-25T02:14:53.224Z,990.46
2022-11-25T02:15:53.235Z,990.46
2022-11-25T02:16:53.291Z,990.49
2022-11-25T02:17:53.202Z,990.47
2022-11-25T02:18:53.186Z,990.43
2022-11-25T02:19:53.182Z,990.49
2022-11-25T02:20:53.172Z,990.45
2022-11-25T02:21:53.160Z,990.44
2022-11-25T02:22:53.152Z,990.51
2022-11-25T02:23:53.136Z,990.48
2022-11-25T02:24:53.104Z,990.52
2022-11-25T02:25:53.161Z,990.46
2022-11-25T02:26:53.102Z,990.46
2022-11-25T02:27:53.124Z,990.47
2022-11-25T02:28:53.074Z,990.41
2022-11-25T02:29:53.083Z,990.39
2022-11-25T02:30:53.072Z,990.41
2022-11-25T02:31:53.123Z,990.41
2022-11-25T02:32:53.024Z,990.37
2022-11-25T02:33:53.059Z,990.35
2022-11-25T02:34:53.016Z,990.34
2022-11-25T02:35:53.042Z,990.35
2022-11-25T02:36:52.982Z,990.30
2022-11-25T02:37:52.993Z,990.30
2022-11-25T02:38:53.018Z,990.37
2022-11-25T02:39:52.981Z,990.35
2022-11-25T02:40:52.972Z,990.33
2022-11-25T02:41:52.956Z,990.32
2022-11-25T02:42:52.924Z,990.36
2022-11-25T02:43:52.944Z,990.35
2022-11-25T02:44:52.929Z,990.37
2022-11-25T02:45:53.010Z,990.37
2022-11-25T02:46:52.915Z,990.38
2022-11-25T02:47:52.935Z,990.37
2022-11-25T02:49:08.361Z,990.34
2022-11-25T02:49:53.874Z,990.37
2022-11-25T02:50:52.894Z,990.32
2022-11-25T02:51:52.853Z,990.30
2022-11-25T02:52:52.843Z,990.32
2022-11-25T02:53:52.863Z,990.31
2022-11-25T02:54:52.803Z,990.32
2022-11-25T02:55:52.825Z,990.34
2022-11-25T02:56:52.834Z,990.38
2022-11-25T02:57:52.783Z,990.41
2022-11-25T02:58:52.774Z,990.40
2022-11-25T02:59:52.775Z,990.42
2022-11-25T03:00:52.807Z,990.38
2022-11-25T03:01:52.807Z,990.42
2022-11-25T03:02:52.766Z,990.47
2022-11-25T03:03:52.735Z,990.50
2022-11-25T03:04:52.706Z,990.49
2022-11-25T03:05:52.731Z,990.46
2022-11-25T03:06:52.694Z,990.51
2022-11-25T03:07:52.786Z,990.50
2022-11-25T03:08:52.672Z,990.48
2022-11-25T03:09:52.683Z,990.53
2022-11-25T03:10:52.653Z,990.47
2022-11-25T03:11:52.651Z,990.45
2022-11-25T03:12:52.643Z,990.45
2022-11-25T03:13:52.631Z,990.46
2022-11-25T03:14:53.584Z,990.46
2022-11-25T03:15:52.607Z,990.48
2022-11-25T03:16:52.640Z,990.46
2022-11-25T03:17:52.595Z,990.51
2022-11-25T03:18:52.586Z,990.49
2022-11-25T03:19:52.564Z,990.52
2022-11-25T03:20:53.213Z,990.52
2022-11-25T03:21:53.363Z,990.45
2022-11-25T03:22:52.625Z,990.48
2022-11-25T03:23:52.573Z,990.50
2022-11-25T03:24:52.506Z,990.53
2022-11-25T03:25:52.516Z,990.47
2022-11-25T03:26:52.495Z,990.53
2022-11-25T03:27:52.527Z,990.49
2022-11-25T03:28:52.475Z,990.51
2022-11-25T03:29:52.476Z,990.53
2022-11-25T03:30:52.456Z,990.55
2022-11-25T03:31:52.525Z,990.53
2022-11-25T03:32:52.484Z,990.53
2022-11-25T03:33:52.423Z,990.48
2022-11-25T03:34:52.416Z,990.48
2022-11-25T03:35:52.426Z,990.52
2022-11-25T03:36:52.441Z,990.45
2022-11-25T03:37:52.387Z,990.45
2022-11-25T03:38:52.374Z,990.44
2022-11-25T03:39:52.383Z,990.43
2022-11-25T03:40:52.357Z,990.44
2022-11-25T03:41:52.374Z,990.48
2022-11-25T03:42:52.326Z,990.44
2022-11-25T03:43:52.346Z,990.42
2022-11-25T03:44:52.307Z,990.46
2022-11-25T03:45:52.330Z,990.43
2022-11-25T03:46:52.296Z,990.43
2022-11-25T03:47:52.293Z,990.42
2022-11-25T03:48:52.269Z,990.42
2022-11-25T03:49:52.266Z,990.45
2022-11-25T03:50:52.266Z,990.46
2022-11-25T03:51:52.313Z,990.41
2022-11-25T03:52:52.228Z,990.41
2022-11-25T03:53:52.906Z,990.45
2022-11-25T03:54:52.227Z,990.48
2022-11-25T03:55:52.216Z,990.43
2022-11-25T03:56:52.217Z,990.43
2022-11-25T03:57:52.219Z,990.41
2022-11-25T03:58:52.166Z,990.41
2022-11-25T03:59:52.184Z,990.43
2022-11-25T04:00:52.185Z,990.43
2022-11-25T04:01:52.233Z,990.40
2022-11-25T04:02:52.197Z,990.40
2022-11-25T04:03:52.145Z,990.43
2022-11-25T04:04:52.113Z,990.43
2022-11-25T04:05:52.095Z,990.43
2022-11-25T04:06:52.086Z,990.44
2022-11-25T04:07:57.564Z,990.49
2022-11-25T04:08:53.085Z,990.41
2022-11-25T04:09:52.076Z,990.39
2022-11-25T04:10:52.035Z,990.38
2022-11-25T04:11:52.088Z,990.45
2022-11-25T04:12:52.027Z,990.41
2022-11-25T04:13:52.026Z,990.42
2022-11-25T04:14:52.028Z,990.40
2022-11-25T04:15:52.043Z,990.40
2022-11-25T04:16:52.072Z,990.43
2022-11-25T04:17:52.017Z,990.38
2022-11-25T04:18:51.979Z,990.40
2022-11-25T04:19:51.987Z,990.41
2022-11-25T04:20:52.625Z,990.41
2022-11-25T04:21:52.568Z,990.37
2022-11-25T04:22:51.956Z,990.38
2022-11-25T04:23:51.937Z,990.38
2022-11-25T04:24:51.917Z,990.37
2022-11-25T04:25:51.943Z,990.37
2022-11-25T04:26:52.012Z,990.37
2022-11-25T04:27:51.887Z,990.38
2022-11-25T04:28:53.101Z,990.36
2022-11-25T04:29:51.865Z,990.34
2022-11-25T04:30:51.942Z,990.35
2022-11-25T04:31:51.870Z,990.37
2022-11-25T04:32:51.816Z,990.33
2022-11-25T04:33:52.837Z,990.40
2022-11-25T04:34:51.795Z,990.36
2022-11-25T04:35:51.806Z,990.39
2022-11-25T04:36:51.793Z,990.38
2022-11-25T04:37:51.815Z,990.37
2022-11-25T04:38:51.760Z,990.35
2022-11-25T04:39:51.759Z,990.33
2022-11-25T04:40:51.756Z,990.42
2022-11-25T04:41:51.748Z,990.42
2022-11-25T04:42:54.933Z,990.38
2022-11-25T04:43:52.780Z,990.40
2022-11-25T04:45:14.013Z,990.39
2022-11-25T04:46:13.113Z,990.44
2022-11-25T04:46:52.713Z,990.39
2022-11-25T04:47:51.704Z,990.44
2022-11-25T04:48:51.660Z,990.39
2022-11-25T04:49:51.724Z,990.45
2022-11-25T04:50:51.639Z,990.38
2022-11-25T04:51:51.659Z,990.40
2022-11-25T04:52:51.640Z,990.41
2022-11-25T04:53:51.637Z,990.40
2022-11-25T04:54:51.598Z,990.46
2022-11-25T04:55:51.611Z,990.42
2022-11-25T04:56:51.578Z,990.40
2022-11-25T04:57:51.599Z,990.47
2022-11-25T04:58:52.049Z,990.47
2022-11-25T04:59:51.563Z,990.38
2022-11-25T05:00:51.583Z,990.36
2022-11-25T05:01:51.593Z,990.34
2022-11-25T05:02:51.570Z,990.38
2022-11-25T05:03:57.176Z,990.38
2022-11-25T05:04:52.523Z,990.45
2022-11-25T05:05:51.505Z,990.42
2022-11-25T05:06:51.479Z,990.38
2022-11-25T05:07:51.556Z,990.46
2022-11-25T05:08:52.419Z,990.43
2022-11-25T05:09:51.477Z,990.46
2022-11-25T05:10:51.438Z,990.46
2022-11-25T05:11:51.449Z,990.49
2022-11-25T05:12:51.499Z,990.47
2022-11-25T05:13:51.439Z,990.48
2022-11-25T05:14:51.401Z,990.44
2022-11-25T05:15:51.406Z,990.45
2022-11-25T05:16:51.442Z,990.40
2022-11-25T05:17:51.407Z,990.38
2022-11-25T05:18:51.347Z,990.37
2022-11-25T05:19:51.366Z,990.43
2022-11-25T05:20:51.336Z,990.40
2022-11-25T05:21:51.329Z,990.37
2022-11-25T05:22:51.317Z,990.40
2022-11-25T05:23:55.703Z,990.40
2022-11-25T05:24:51.310Z,990.36
2022-11-25T05:25:51.309Z,990.42
2022-11-25T05:26:51.291Z,990.41
2022-11-25T05:27:51.447Z,990.42
2022-11-25T05:28:51.257Z,990.45
2022-11-25T05:29:55.724Z,990.45
2022-11-25T05:30:52.308Z,990.45
2022-11-25T05:31:51.239Z,990.44
2022-11-25T05:32:51.410Z,990.50
2022-11-25T05:33:51.237Z,990.42
2022-11-25T05:34:51.247Z,990.43
2022-11-25T05:35:51.209Z,990.45
2022-11-25T05:36:51.179Z,990.47
2022-11-25T05:38:48.095Z,990.45
2022-11-25T05:39:48.084Z,990.44
2022-11-25T05:40:48.054Z,990.47
2022-11-25T05:41:48.064Z,990.53
2022-11-25T05:42:48.064Z,990.47
2022-11-25T05:43:48.150Z,990.51
2022-11-25T05:44:48.045Z,990.53
2022-11-25T05:45:48.098Z,990.52
2022-11-25T05:46:47.997Z,990.48
2022-11-25T05:47:48.027Z,990.51
2022-11-25T05:48:48.007Z,990.56
2022-11-25T05:49:47.997Z,990.50
2022-11-25T05:50:47.958Z,990.53
2022-11-25T05:51:47.976Z,990.50
2022-11-25T05:52:47.946Z,990.56
2022-11-25T05:53:47.934Z,990.55
2022-11-25T05:54:47.936Z,990.57
2022-11-25T05:55:47.916Z,990.60
2022-11-25T05:56:47.886Z,990.55
2022-11-25T05:57:47.911Z,990.56
2022-11-25T05:58:47.885Z,990.54
2022-11-25T05:59:47.893Z,990.55
2022-11-25T06:00:47.874Z,990.51
2022-11-25T06:01:47.878Z,990.50
2022-11-25T06:02:47.976Z,990.48
2022-11-25T06:03:47.899Z,990.47
2022-11-25T06:04:47.823Z,990.44
2022-11-25T06:05:47.840Z,990.44
2022-11-25T06:06:47.809Z,990.42
2022-11-25T06:07:47.865Z,990.49
2022-11-25T06:08:47.789Z,990.47
2022-11-25T06:09:47.800Z,990.53
2022-11-25T06:10:47.886Z,990.58
2022-11-25T06:11:47.765Z,990.52
2022-11-25T06:12:47.745Z,990.55
2022-11-25T06:13:47.736Z,990.54
2022-11-25T06:14:47.717Z,990.57
2022-11-25T06:15:47.754Z,990.47
2022-11-25T06:16:47.685Z,990.49
2022-11-25T06:17:47.698Z,990.50
2022-11-25T06:18:47.859Z,990.47
2022-11-25T06:19:47.688Z,990.49
2022-11-25T06:20:47.699Z,990.50
2022-11-25T06:21:47.666Z,990.51
2022-11-25T06:22:47.637Z,990.42
2022-11-25T06:23:47.649Z,990.38
2022-11-25T06:24:54.398Z,990.43
2022-11-25T06:25:48.634Z,990.49
2022-11-25T06:26:47.599Z,990.43
2022-11-25T06:28:11.803Z,990.49
2022-11-25T06:28:48.583Z,990.43
2022-11-25T06:29:47.565Z,990.50
2022-11-25T06:30:47.630Z,990.43
2022-11-25T06:31:47.556Z,990.42
2022-11-25T06:32:47.569Z,990.45
2022-11-25T06:33:47.538Z,990.44
2022-11-25T06:34:47.538Z,990.51
2022-11-25T06:35:47.518Z,990.54
2022-11-25T06:36:47.517Z,990.52
2022-11-25T06:37:47.477Z,990.51
2022-11-25T06:38:47.456Z,990.54
2022-11-25T06:39:47.466Z,990.63
2022-11-25T06:40:47.457Z,990.62
2022-11-25T06:41:47.457Z,990.59
2022-11-25T06:42:47.418Z,990.59
2022-11-25T06:43:47.468Z,990.60
2022-11-25T06:44:47.406Z,990.57
2022-11-25T06:45:47.399Z,990.54
2022-11-25T06:46:47.451Z,990.63
2022-11-25T06:47:47.389Z,990.64
2022-11-25T06:48:47.358Z,990.63
2022-11-25T06:49:47.386Z,990.65
2022-11-25T06:50:47.336Z,990.68
2022-11-25T06:51:47.365Z,990.71
2022-11-25T06:52:47.317Z,990.67
2022-11-25T06:53:47.316Z,990.71
2022-11-25T06:54:47.251Z,990.70
2022-11-25T06:55:47.316Z,990.72
2022-11-25T06:56:47.268Z,990.72
2022-11-25T06:57:47.330Z,990.68
2022-11-25T06:58:47.268Z,990.74
2022-11-25T06:59:47.268Z,990.75
2022-11-25T07:00:47.239Z,990.72
2022-11-25T07:01:47.283Z,990.72
2022-11-25T07:02:48.922Z,990.73
2022-11-25T07:03:47.282Z,990.77
2022-11-25T07:04:47.209Z,990.79
2022-11-25T07:05:47.219Z,990.81
2022-11-25T07:06:47.217Z,990.93
2022-11-25T07:07:47.218Z,990.89
2022-11-25T07:08:47.167Z,990.93
2022-11-25T07:09:47.157Z,990.97
2022-11-25T07:10:47.119Z,990.94
2022-11-25T07:11:47.094Z,990.97
2022-11-25T07:12:47.048Z,990.98
2022-11-25T07:13:47.088Z,990.96
2022-11-25T07:14:47.070Z,991.01
2022-11-25T07:15:47.064Z,991.04
2022-11-25T07:16:47.019Z,991.06
2022-11-25T07:17:47.029Z,991.09
2022-11-25T07:18:47.003Z,991.06
2022-11-25T07:19:47.085Z,991.08
2022-11-25T07:20:47.000Z,991.02
2022-11-25T07:21:46.991Z,991.04
2022-11-25T07:22:46.958Z,991.03
2022-11-25T07:23:46.958Z,991.00
2022-11-25T07:24:46.974Z,991.01
2022-11-25T07:25:46.959Z,991.06
2022-11-25T07:26:46.956Z,990.99
2022-11-25T07:27:46.918Z,990.98
2022-11-25T07:28:46.908Z,991.03
2022-11-25T07:31:22.645Z,991.03
2022-11-25T07:31:47.897Z,991.05
2022-11-25T07:32:46.873Z,991.09
2022-11-25T07:33:46.894Z,991.08
2022-11-25T07:34:46.832Z,991.06
2022-11-25T07:35:46.852Z,991.11
2022-11-25T07:36:46.830Z,991.08
2022-11-25T07:37:46.857Z,991.08
2022-11-25T07:38:47.091Z,991.16
2022-11-25T07:39:46.798Z,991.15
2022-11-25T07:40:46.769Z,991.12
2022-11-25T07:41:46.771Z,991.12
2022-11-25T07:42:46.791Z,991.11
2022-11-25T07:43:46.772Z,991.09
2022-11-25T07:44:46.761Z,991.15
2022-11-25T07:45:46.789Z,991.17
2022-11-25T07:46:46.749Z,991.22
2022-11-25T07:47:46.699Z,991.22
2022-11-25T07:48:46.750Z,991.19
2022-11-25T07:49:46.679Z,991.21
2022-11-25T07:50:46.700Z,991.28
2022-11-25T07:51:46.659Z,991.22
2022-11-25T07:52:46.649Z,991.25
2022-11-25T07:53:46.642Z,991.27
2022-11-25T07:54:46.703Z,991.27
2022-11-25T07:55:46.629Z,991.28
2022-11-25T07:56:46.651Z,991.26
2022-11-25T07:57:46.603Z,991.28
2022-11-25T07:58:46.610Z,991.20
2022-11-25T07:59:46.584Z,991.26
2022-11-25T08:00:46.601Z,991.25
2022-11-25T08:01:46.646Z,991.21
2022-11-25T08:02:46.603Z,991.23
2022-11-25T08:03:46.530Z,991.26
2022-11-25T08:04:46.539Z,991.27
2022-11-25T08:05:46.537Z,991.26
2022-11-25T08:06:46.530Z,991.26
2022-11-25T08:07:46.573Z,991.34
2022-11-25T08:08:46.510Z,991.29
2022-11-25T08:09:46.473Z,991.30
2022-11-25T08:10:46.472Z,991.31
2022-11-25T08:11:46.482Z,991.43
2022-11-25T08:12:46.472Z,991.44
2022-11-25T08:13:46.450Z,991.49
2022-11-25T08:14:46.472Z,991.50
2022-11-25T08:15:46.524Z,991.49
2022-11-25T08:16:46.441Z,991.49
2022-11-25T08:17:46.391Z,991.47
2022-11-25T08:18:46.425Z,991.48
2022-11-25T08:19:46.420Z,991.50
2022-11-25T08:20:46.416Z,991.50
2022-11-25T08:21:46.350Z,991.43
2022-11-25T08:22:46.351Z,991.44
2022-11-25T08:23:46.333Z,991.45
2022-11-25T08:24:46.333Z,991.43
2022-11-25T08:25:50.465Z,991.49
2022-11-25T08:26:46.352Z,991.45
2022-11-25T08:27:46.319Z,991.44
2022-11-25T08:28:46.323Z,991.47
2022-11-25T08:29:46.279Z,991.46
2022-11-25T08:30:46.281Z,991.49
2022-11-25T08:31:46.379Z,991.52
2022-11-25T08:32:46.284Z,991.48
2022-11-25T08:33:46.230Z,991.51
2022-11-25T08:34:46.230Z,991.50
2022-11-25T08:35:46.203Z,991.51
2022-11-25T08:36:48.483Z,991.55
2022-11-25T08:37:46.216Z,991.49
2022-11-25T08:38:46.221Z,991.48
2022-11-25T08:39:54.039Z,991.49
2022-11-25T08:40:47.170Z,991.53
2022-11-25T08:41:46.171Z,991.51
2022-11-25T08:42:46.212Z,991.55
2022-11-25T08:43:46.132Z,991.56
2022-11-25T08:44:46.152Z,991.54
2022-11-25T08:45:46.132Z,991.45
2022-11-25T08:46:46.139Z,991.50
2022-11-25T08:47:46.080Z,991.51
2022-11-25T08:48:46.590Z,991.51
2022-11-25T08:49:46.307Z,991.49
2022-11-25T08:50:46.092Z,991.48
2022-11-25T08:51:46.043Z,991.45
2022-11-25T08:52:46.074Z,991.38
2022-11-25T08:53:46.022Z,991.32
2022-11-25T08:54:46.048Z,991.29
2022-11-25T08:55:46.010Z,991.34
2022-11-25T08:56:46.011Z,991.34
2022-11-25T08:57:46.001Z,991.38
2022-11-25T08:58:45.984Z,991.41
2022-11-25T08:59:45.959Z,991.42
2022-11-25T09:00:46.004Z,991.45
2022-11-25T09:01:46.002Z,991.52
2022-11-25T09:02:46.078Z,991.46
2022-11-25T09:03:45.931Z,991.51
2022-11-25T09:04:45.962Z,991.50
2022-11-25T09:05:45.906Z,991.48
2022-11-25T09:06:45.912Z,991.55
2022-11-25T09:07:45.976Z,991.53
2022-11-25T09:08:45.918Z,991.56
2022-11-25T09:09:45.863Z,991.47
2022-11-25T09:10:45.960Z,991.48
2022-11-25T09:11:45.942Z,991.44
2022-11-25T09:12:45.881Z,991.46
2022-11-25T09:13:45.907Z,991.45
2022-11-25T09:14:45.871Z,991.35
2022-11-25T09:15:45.831Z,991.37
2022-11-25T09:16:45.857Z,991.33
2022-11-25T09:17:45.790Z,991.34
2022-11-25T09:18:45.781Z,991.33
2022-11-25T09:19:45.781Z,991.36
2022-11-25T09:20:45.813Z,991.41
2022-11-25T09:21:45.797Z,991.52
2022-11-25T09:22:45.755Z,991.55
2022-11-25T09:23:45.823Z,991.64
2022-11-25T09:24:45.703Z,991.68
2022-11-25T09:25:45.753Z,991.59
2022-11-25T09:26:45.739Z,991.67
2022-11-25T09:27:45.718Z,991.63
2022-11-25T09:28:45.718Z,991.70
2022-11-25T09:29:45.671Z,991.73
2022-11-25T09:30:45.640Z,991.74
2022-11-25T09:31:48.867Z,991.77
2022-11-25T09:32:46.642Z,991.75
2022-11-25T09:33:45.640Z,991.73
2022-11-25T09:34:45.602Z,991.68
2022-11-25T09:35:45.632Z,991.61
2022-11-25T09:36:45.584Z,991.63
2022-11-25T09:37:45.658Z,991.58
2022-11-25T09:38:45.604Z,991.57
2022-11-25T09:39:45.563Z,991.57
2022-11-25T09:40:45.557Z,991.61
2022-11-25T09:41:45.584Z,991.69
2022-11-25T09:42:45.530Z,991.72
2022-11-25T09:43:45.554Z,991.65
2022-11-25T09:44:45.520Z,991.69
2022-11-25T09:45:45.500Z,991.69
2022-11-25T09:46:45.594Z,991.62
2022-11-25T09:47:48.974Z,991.58
2022-11-25T09:48:46.504Z,991.58
2022-11-25T09:49:45.465Z,991.56
2022-11-25T09:50:45.464Z,991.55
2022-11-25T09:51:45.454Z,991.62
2022-11-25T09:52:45.444Z,991.57
2022-11-25T09:53:45.403Z,991.59
2022-11-25T09:54:45.442Z,991.64
2022-11-25T09:55:45.392Z,991.63
2022-11-25T09:56:45.393Z,991.66
2022-11-25T09:57:45.383Z,991.67
2022-11-25T09:58:45.374Z,991.65
2022-11-25T09:59:45.344Z,991.63
2022-11-25T10:00:45.364Z,991.63
2022-11-25T10:01:45.418Z,991.65
2022-11-25T10:02:45.465Z,991.61
2022-11-25T10:03:45.374Z,991.66
2022-11-25T10:04:45.325Z,991.69
2022-11-25T10:05:45.304Z,991.73
2022-11-25T10:06:46.603Z,991.75
2022-11-25T10:07:45.264Z,991.75
2022-11-25T10:08:45.284Z,991.77
2022-11-25T10:09:45.252Z,991.84
2022-11-25T10:10:45.272Z,991.86
2022-11-25T10:11:45.233Z,991.81
2022-11-25T10:12:45.237Z,991.82
2022-11-25T10:13:45.193Z,991.80
2022-11-25T10:14:45.221Z,991.88
2022-11-25T10:15:45.230Z,991.80
2022-11-25T10:16:51.156Z,991.77
2022-11-25T10:17:46.224Z,991.78
2022-11-25T10:18:45.184Z,991.77
2022-11-25T10:19:45.153Z,991.73
2022-11-25T10:20:45.156Z,991.75
2022-11-25T10:21:45.134Z,991.80
2022-11-25T10:22:45.134Z,991.86
2022-11-25T10:23:45.125Z,991.86
2022-11-25T10:24:45.219Z,991.86
2022-11-25T10:25:45.102Z,991.94
2022-11-25T10:26:45.083Z,991.86
2022-11-25T10:27:45.072Z,991.84
2022-11-25T10:28:45.083Z,991.79
2022-11-25T10:29:45.044Z,991.84
2022-11-25T10:30:45.052Z,991.76
2022-11-25T10:31:45.100Z,991.77
2022-11-25T10:32:45.070Z,991.74
2022-11-25T10:33:45.025Z,991.72
2022-11-25T10:34:45.055Z,991.70
2022-11-25T10:35:44.975Z,991.75
2022-11-25T10:36:44.975Z,991.72
2022-11-25T10:37:44.985Z,991.67
2022-11-25T10:39:41.654Z,991.62
2022-11-25T10:40:41.661Z,991.63
2022-11-25T10:41:41.685Z,991.62
2022-11-25T10:42:41.603Z,991.59
2022-11-25T10:43:42.254Z,991.57
2022-11-25T10:44:41.607Z,991.53
2022-11-25T10:45:41.652Z,991.56
2022-11-25T10:47:11.622Z,991.59
2022-11-25T10:47:42.750Z,991.60
2022-11-25T10:48:44.323Z,991.62
2022-11-25T10:49:41.558Z,991.63
2022-11-25T10:50:41.537Z,991.68
2022-11-25T10:51:41.544Z,991.74
2022-11-25T10:52:41.523Z,991.71
2022-11-25T10:53:41.521Z,991.74
2022-11-25T10:54:41.796Z,991.78
2022-11-25T10:55:41.493Z,991.80
2022-11-25T10:56:41.477Z,991.80
2022-11-25T10:57:41.482Z,991.80
2022-11-25T10:58:41.637Z,991.72
2022-11-25T10:59:41.462Z,991.67
2022-11-25T11:00:41.445Z,991.65
2022-11-25T11:01:41.515Z,991.73
2022-11-25T11:02:41.503Z,991.71
2022-11-25T11:03:41.442Z,991.72
2022-11-25T11:04:41.426Z,991.67
2022-11-25T11:05:46.452Z,991.61
2022-11-25T11:06:42.393Z,991.67
2022-11-25T11:07:41.445Z,991.63
2022-11-25T11:08:41.394Z,991.59
2022-11-25T11:09:41.732Z,991.57
2022-11-25T11:10:41.353Z,991.60
2022-11-25T11:11:41.451Z,991.59
2022-11-25T11:12:41.302Z,991.70
2022-11-25T11:13:41.306Z,991.65
2022-11-25T11:14:41.295Z,991.63
2022-11-25T11:15:41.522Z,991.65
2022-11-25T11:16:41.307Z,991.60
2022-11-25T11:17:41.295Z,991.67
2022-11-25T11:18:41.276Z,991.67
2022-11-25T11:19:41.265Z,991.72
2022-11-25T11:20:41.794Z,991.73
2022-11-25T11:21:41.259Z,991.73
2022-11-25T11:22:41.208Z,991.77
2022-11-25T11:23:41.213Z,991.75
2022-11-25T11:24:41.290Z,991.73
2022-11-25T11:25:41.224Z,991.78
2022-11-25T11:26:41.173Z,991.74
2022-11-25T11:27:41.172Z,991.72
2022-11-25T11:28:41.165Z,991.69
2022-11-25T11:29:41.174Z,991.66
2022-11-25T11:30:41.696Z,991.65
2022-11-25T11:31:41.176Z,991.70
2022-11-25T11:32:41.124Z,991.67
2022-11-25T11:33:41.122Z,991.60
2022-11-25T11:34:41.130Z,991.69
2022-11-25T11:35:42.088Z,991.71
2022-11-25T11:36:41.145Z,991.75
2022-11-25T11:37:41.073Z,991.78
2022-11-25T11:38:41.054Z,991.75
2022-11-25T11:39:41.089Z,991.79
2022-11-25T11:40:41.094Z,991.84
2022-11-25T11:41:41.066Z,991.81
2022-11-25T11:42:41.023Z,991.82
2022-11-25T11:43:41.015Z,991.87
2022-11-25T11:44:40.996Z,991.78
2022-11-25T11:45:41.035Z,991.77
2022-11-25T11:46:41.048Z,991.79
2022-11-25T11:47:40.979Z,991.73
2022-11-25T11:48:40.944Z,991.67
2022-11-25T11:49:40.974Z,991.68
2022-11-25T11:50:41.105Z,991.61
2022-11-25T11:51:40.924Z,991.68
2022-11-25T11:52:40.963Z,991.73
2022-11-25T11:53:40.946Z,991.76
2022-11-25T11:54:40.885Z,991.84
2022-11-25T11:55:41.214Z,991.83
2022-11-25T11:56:40.915Z,991.83
2022-11-25T11:57:40.868Z,991.82
2022-11-25T11:58:40.874Z,991.83
2022-11-25T11:59:40.855Z,991.84
2022-11-25T12:00:40.863Z,991.76
2022-11-25T12:01:40.947Z,991.79
2022-11-25T12:02:40.947Z,991.71
2022-11-25T12:03:40.998Z,991.74
2022-11-25T12:04:40.841Z,991.71
2022-11-25T12:05:40.792Z,991.73
2022-11-25T12:06:41.238Z,991.71
2022-11-25T12:07:40.871Z,991.72
2022-11-25T12:08:40.784Z,991.73
2022-11-25T12:09:40.776Z,991.82
2022-11-25T12:10:41.422Z,991.78
2022-11-25T12:11:40.726Z,991.83
2022-11-25T12:12:40.794Z,991.78
2022-11-25T12:13:40.716Z,991.80
2022-11-25T12:14:40.694Z,991.80
2022-11-25T12:15:40.694Z,991.76
2022-11-25T12:16:40.805Z,991.73
2022-11-25T12:17:40.676Z,991.70
2022-11-25T12:18:41.167Z,991.74
2022-11-25T12:19:40.634Z,991.76
2022-11-25T12:20:40.647Z,991.73
2022-11-25T12:21:42.253Z,991.79
2022-11-25T12:22:40.644Z,991.72
2022-11-25T12:23:40.636Z,991.75
2022-11-25T12:24:40.592Z,991.71
2022-11-25T12:25:40.582Z,991.74
2022-11-25T12:26:40.607Z,991.80
2022-11-25T12:27:40.741Z,991.82
2022-11-25T12:28:40.797Z,991.81
2022-11-25T12:29:40.578Z,991.79
2022-11-25T12:30:40.528Z,991.83
2022-11-25T12:31:40.651Z,991.77
2022-11-25T12:32:40.559Z,991.76